sensor_id;sensor_type;location;lat;lon;timestamp;temperature;humidity
47090;DHT22;32840;52.516;13.294;2023-07-30T00:00:26;19.00;99.90
47090;DHT22;32840;52.516;13.294;2023-07-30T00:03:12;19.00;99.90
47090;DHT22;32840;52.516;13.294;2023-07-30T00:05:58;18.90;99.90
47090;DHT22;32840;52.516;13.294;2023-07-30T00:08:43;18.90;99.90
47090;DHT22;32840;52.516;13.294;2023-07-30T00:11:31;18.80;99.90
47090;DHT22;32840;52.516;13.294;2023-07-30T00:14:15;18.90;99.90
47090;DHT22;32840;52.516;13.294;2023-07-30T00:17:01;18.90;99.90
47090;DHT22;32840;52.516;13.294;2023-07-30T00:19:46;18.90;99.90
47090;DHT22;32840;52.516;13.294;2023-07-30T00:22:31;18.90;99.90
47090;DHT22;32840;52.516;13.294;2023-07-30T00:25:16;18.90;99.90
47090;DHT22;32840;52.516;13.294;2023-07-30T00:28:01;18.80;99.90
47090;DHT22;32840;52.516;13.294;2023-07-30T00:30:46;18.70;99.90
47090;DHT22;32840;52.516;13.294;2023-07-30T00:33:31;18.60;99.90
47090;DHT22;32840;52.516;13.294;2023-07-30T00:36:16;18.60;99.90
47090;DHT22;32840;52.516;13.294;2023-07-30T00:39:01;18.50;99.90
47090;DHT22;32840;52.516;13.294;2023-07-30T00:41:46;18.50;99.90
47090;DHT22;32840;52.516;13.294;2023-07-30T00:44:34;18.50;99.90
47090;DHT22;32840;52.516;13.294;2023-07-30T00:47:22;18.50;99.90
47090;DHT22;32840;52.516;13.294;2023-07-30T00:50:08;18.50;99.90
47090;DHT22;32840;52.516;13.294;2023-07-30T00:52:53;18.60;99.90
47090;DHT22;32840;52.516;13.294;2023-07-30T00:55:38;18.50;99.90
47090;DHT22;32840;52.516;13.294;2023-07-30T00:58:23;18.40;99.90
47090;DHT22;32840;52.516;13.294;2023-07-30T01:01:08;18.30;99.90
47090;DHT22;32840;52.516;13.294;2023-07-30T01:03:54;18.40;99.90
47090;DHT22;32840;52.516;13.294;2023-07-30T01:06:42;18.30;99.90
47090;DHT22;32840;52.516;13.294;2023-07-30T01:09:27;18.40;99.90
47090;DHT22;32840;52.516;13.294;2023-07-30T01:12:13;18.40;99.90
47090;DHT22;32840;52.516;13.294;2023-07-30T01:14:59;18.50;99.90
47090;DHT22;32840;52.516;13.294;2023-07-30T01:17:47;18.50;99.90
47090;DHT22;32840;52.516;13.294;2023-07-30T01:20:32;18.40;99.90
47090;DHT22;32840;52.516;13.294;2023-07-30T01:23:17;18.40;99.90
47090;DHT22;32840;52.516;13.294;2023-07-30T01:26:19;18.60;99.90
47090;DHT22;32840;52.516;13.294;2023-07-30T01:29:16;18.60;99.90
47090;DHT22;32840;52.516;13.294;2023-07-30T01:32:08;18.60;99.90
47090;DHT22;32840;52.516;13.294;2023-07-30T01:34:56;18.50;99.90
47090;DHT22;32840;52.516;13.294;2023-07-30T01:37:43;18.50;99.90
47090;DHT22;32840;52.516;13.294;2023-07-30T01:40:29;18.50;99.90
47090;DHT22;32840;52.516;13.294;2023-07-30T01:43:17;18.50;99.90
47090;DHT22;32840;52.516;13.294;2023-07-30T01:46:02;18.50;99.90
47090;DHT22;32840;52.516;13.294;2023-07-30T01:48:47;18.40;99.90
47090;DHT22;32840;52.516;13.294;2023-07-30T01:51:32;18.40;99.90
47090;DHT22;32840;52.516;13.294;2023-07-30T01:54:17;18.40;99.90
47090;DHT22;32840;52.516;13.294;2023-07-30T01:57:02;18.30;99.90
47090;DHT22;32840;52.516;13.294;2023-07-30T01:59:47;18.30;99.90
47090;DHT22;32840;52.516;13.294;2023-07-30T02:02:32;18.40;99.90
47090;DHT22;32840;52.516;13.294;2023-07-30T02:05:17;18.40;99.90
47090;DHT22;32840;52.516;13.294;2023-07-30T02:08:03;18.30;99.90
47090;DHT22;32840;52.516;13.294;2023-07-30T02:10:58;18.40;99.90
47090;DHT22;32840;52.516;13.294;2023-07-30T02:13:43;18.40;99.90
47090;DHT22;32840;52.516;13.294;2023-07-30T02:16:28;18.30;99.90
47090;DHT22;32840;52.516;13.294;2023-07-30T02:19:13;18.30;99.90
47090;DHT22;32840;52.516;13.294;2023-07-30T02:21:58;18.30;99.90
47090;DHT22;32840;52.516;13.294;2023-07-30T02:24:43;18.20;99.90
47090;DHT22;32840;52.516;13.294;2023-07-30T02:27:28;18.20;99.90
47090;DHT22;32840;52.516;13.294;2023-07-30T02:30:13;18.40;99.90
47090;DHT22;32840;52.516;13.294;2023-07-30T02:32:57;18.30;99.90
47090;DHT22;32840;52.516;13.294;2023-07-30T02:35:46;18.40;99.90
47090;DHT22;32840;52.516;13.294;2023-07-30T02:38:30;18.40;99.90
47090;DHT22;32840;52.516;13.294;2023-07-30T02:41:16;18.40;99.90
47090;DHT22;32840;52.516;13.294;2023-07-30T02:44:01;18.40;99.90
47090;DHT22;32840;52.516;13.294;2023-07-30T02:46:46;18.30;99.90
47090;DHT22;32840;52.516;13.294;2023-07-30T02:49:31;18.30;99.90
47090;DHT22;32840;52.516;13.294;2023-07-30T02:52:16;18.20;99.90
47090;DHT22;32840;52.516;13.294;2023-07-30T02:55:00;18.20;99.90
47090;DHT22;32840;52.516;13.294;2023-07-30T02:57:46;18.20;99.90
47090;DHT22;32840;52.516;13.294;2023-07-30T03:00:33;18.10;99.90
47090;DHT22;32840;52.516;13.294;2023-07-30T03:03:18;18.10;99.90
47090;DHT22;32840;52.516;13.294;2023-07-30T03:06:03;18.20;99.90
47090;DHT22;32840;52.516;13.294;2023-07-30T03:08:48;18.20;99.90
47090;DHT22;32840;52.516;13.294;2023-07-30T03:11:33;18.20;99.90
47090;DHT22;32840;52.516;13.294;2023-07-30T03:14:21;18.20;99.90
47090;DHT22;32840;52.516;13.294;2023-07-30T03:17:06;18.00;99.90
47090;DHT22;32840;52.516;13.294;2023-07-30T03:19:51;18.10;99.90
47090;DHT22;32840;52.516;13.294;2023-07-30T03:22:36;18.10;99.90
47090;DHT22;32840;52.516;13.294;2023-07-30T03:25:21;18.20;99.90
47090;DHT22;32840;52.516;13.294;2023-07-30T03:28:09;18.20;99.90
47090;DHT22;32840;52.516;13.294;2023-07-30T03:30:54;18.20;99.90
47090;DHT22;32840;52.516;13.294;2023-07-30T03:33:39;18.10;99.90
47090;DHT22;32840;52.516;13.294;2023-07-30T03:36:28;18.10;99.90
47090;DHT22;32840;52.516;13.294;2023-07-30T03:39:13;18.10;99.90
47090;DHT22;32840;52.516;13.294;2023-07-30T03:41:58;18.20;99.90
47090;DHT22;32840;52.516;13.294;2023-07-30T03:44:43;18.10;99.90
47090;DHT22;32840;52.516;13.294;2023-07-30T03:47:28;18.10;99.90
47090;DHT22;32840;52.516;13.294;2023-07-30T03:50:13;18.10;99.90
47090;DHT22;32840;52.516;13.294;2023-07-30T03:52:58;18.10;99.90
47090;DHT22;32840;52.516;13.294;2023-07-30T03:55:43;18.20;99.90
47090;DHT22;32840;52.516;13.294;2023-07-30T03:58:28;18.10;99.90
47090;DHT22;32840;52.516;13.294;2023-07-30T04:01:21;18.10;99.90
47090;DHT22;32840;52.516;13.294;2023-07-30T04:04:06;18.10;99.90
47090;DHT22;32840;52.516;13.294;2023-07-30T04:06:51;18.10;99.90
47090;DHT22;32840;52.516;13.294;2023-07-30T04:09:36;18.20;99.90
47090;DHT22;32840;52.516;13.294;2023-07-30T04:12:22;18.20;99.90
47090;DHT22;32840;52.516;13.294;2023-07-30T04:15:07;18.20;99.90
47090;DHT22;32840;52.516;13.294;2023-07-30T04:17:53;18.20;99.90
47090;DHT22;32840;52.516;13.294;2023-07-30T04:20:38;18.10;99.90
47090;DHT22;32840;52.516;13.294;2023-07-30T04:23:23;18.20;99.90
47090;DHT22;32840;52.516;13.294;2023-07-30T04:26:08;18.10;99.90
47090;DHT22;32840;52.516;13.294;2023-07-30T04:28:53;18.00;99.90
47090;DHT22;32840;52.516;13.294;2023-07-30T04:31:38;18.00;99.90
47090;DHT22;32840;52.516;13.294;2023-07-30T04:34:23;18.10;99.90
47090;DHT22;32840;52.516;13.294;2023-07-30T04:37:08;18.10;99.90
47090;DHT22;32840;52.516;13.294;2023-07-30T04:39:53;18.10;99.90
47090;DHT22;32840;52.516;13.294;2023-07-30T04:42:38;18.10;99.90
47090;DHT22;32840;52.516;13.294;2023-07-30T04:45:26;18.10;99.90
47090;DHT22;32840;52.516;13.294;2023-07-30T04:48:11;18.10;99.90
47090;DHT22;32840;52.516;13.294;2023-07-30T04:50:56;18.10;99.90
47090;DHT22;32840;52.516;13.294;2023-07-30T04:53:41;18.20;99.90
47090;DHT22;32840;52.516;13.294;2023-07-30T04:56:26;18.20;99.90
47090;DHT22;32840;52.516;13.294;2023-07-30T04:59:11;18.30;99.90
47090;DHT22;32840;52.516;13.294;2023-07-30T05:01:56;18.30;99.90
47090;DHT22;32840;52.516;13.294;2023-07-30T05:04:41;18.30;99.90
47090;DHT22;32840;52.516;13.294;2023-07-30T05:07:26;18.40;99.90
47090;DHT22;32840;52.516;13.294;2023-07-30T05:10:11;18.40;99.90
47090;DHT22;32840;52.516;13.294;2023-07-30T05:12:56;18.40;99.90
47090;DHT22;32840;52.516;13.294;2023-07-30T05:15:41;18.40;99.90
47090;DHT22;32840;52.516;13.294;2023-07-30T05:18:26;18.40;99.90
47090;DHT22;32840;52.516;13.294;2023-07-30T05:21:11;18.50;99.90
47090;DHT22;32840;52.516;13.294;2023-07-30T05:23:56;18.60;99.90
47090;DHT22;32840;52.516;13.294;2023-07-30T05:26:41;18.70;99.90
47090;DHT22;32840;52.516;13.294;2023-07-30T05:29:25;18.80;99.90
47090;DHT22;32840;52.516;13.294;2023-07-30T05:32:10;19.00;99.90
47090;DHT22;32840;52.516;13.294;2023-07-30T05:34:57;19.10;99.90
47090;DHT22;32840;52.516;13.294;2023-07-30T05:37:42;19.20;99.90
47090;DHT22;32840;52.516;13.294;2023-07-30T05:40:29;19.20;99.90
47090;DHT22;32840;52.516;13.294;2023-07-30T05:43:14;19.20;99.90
47090;DHT22;32840;52.516;13.294;2023-07-30T05:45:59;19.30;99.90
47090;DHT22;32840;52.516;13.294;2023-07-30T05:48:44;19.40;99.90
47090;DHT22;32840;52.516;13.294;2023-07-30T05:51:29;19.50;99.90
47090;DHT22;32840;52.516;13.294;2023-07-30T05:54:14;19.60;99.90
47090;DHT22;32840;52.516;13.294;2023-07-30T05:56:59;19.60;99.90
47090;DHT22;32840;52.516;13.294;2023-07-30T05:59:46;19.50;99.90
47090;DHT22;32840;52.516;13.294;2023-07-30T06:02:31;19.50;99.90
47090;DHT22;32840;52.516;13.294;2023-07-30T06:05:16;19.40;99.90
47090;DHT22;32840;52.516;13.294;2023-07-30T06:08:01;19.50;99.90
47090;DHT22;32840;52.516;13.294;2023-07-30T06:10:47;19.40;99.90
47090;DHT22;32840;52.516;13.294;2023-07-30T06:13:35;19.40;99.90
47090;DHT22;32840;52.516;13.294;2023-07-30T06:16:19;19.50;99.90
47090;DHT22;32840;52.516;13.294;2023-07-30T06:19:05;19.50;99.90
47090;DHT22;32840;52.516;13.294;2023-07-30T06:21:50;19.60;99.90
47090;DHT22;32840;52.516;13.294;2023-07-30T06:24:35;19.80;99.90
47090;DHT22;32840;52.516;13.294;2023-07-30T06:27:20;20.00;99.90
47090;DHT22;32840;52.516;13.294;2023-07-30T06:30:06;20.10;99.90
47090;DHT22;32840;52.516;13.294;2023-07-30T06:32:51;20.20;99.90
47090;DHT22;32840;52.516;13.294;2023-07-30T06:35:36;20.20;99.90
47090;DHT22;32840;52.516;13.294;2023-07-30T06:38:22;20.30;99.90
47090;DHT22;32840;52.516;13.294;2023-07-30T06:41:07;20.50;99.90
47090;DHT22;32840;52.516;13.294;2023-07-30T06:43:52;20.60;99.90
47090;DHT22;32840;52.516;13.294;2023-07-30T06:46:37;20.70;99.90
47090;DHT22;32840;52.516;13.294;2023-07-30T06:49:22;20.70;99.90
47090;DHT22;32840;52.516;13.294;2023-07-30T06:52:07;20.80;99.90
47090;DHT22;32840;52.516;13.294;2023-07-30T06:54:52;20.90;99.90
47090;DHT22;32840;52.516;13.294;2023-07-30T06:57:37;20.90;99.90
47090;DHT22;32840;52.516;13.294;2023-07-30T07:00:22;21.00;99.90
47090;DHT22;32840;52.516;13.294;2023-07-30T07:03:07;20.90;99.90
47090;DHT22;32840;52.516;13.294;2023-07-30T07:05:54;20.90;99.90
47090;DHT22;32840;52.516;13.294;2023-07-30T07:08:39;20.90;99.90
47090;DHT22;32840;52.516;13.294;2023-07-30T07:11:24;20.90;99.90
47090;DHT22;32840;52.516;13.294;2023-07-30T07:14:09;20.90;99.90
47090;DHT22;32840;52.516;13.294;2023-07-30T07:16:54;20.90;99.90
47090;DHT22;32840;52.516;13.294;2023-07-30T07:19:42;21.00;99.90
47090;DHT22;32840;52.516;13.294;2023-07-30T07:22:27;21.00;99.90
47090;DHT22;32840;52.516;13.294;2023-07-30T07:25:12;21.00;99.90
47090;DHT22;32840;52.516;13.294;2023-07-30T07:27:57;21.10;99.90
47090;DHT22;32840;52.516;13.294;2023-07-30T07:30:42;21.30;99.90
47090;DHT22;32840;52.516;13.294;2023-07-30T07:33:27;21.40;99.90
47090;DHT22;32840;52.516;13.294;2023-07-30T07:36:12;21.60;99.90
47090;DHT22;32840;52.516;13.294;2023-07-30T07:38:59;21.80;99.90
47090;DHT22;32840;52.516;13.294;2023-07-30T07:41:43;21.90;99.90
47090;DHT22;32840;52.516;13.294;2023-07-30T07:44:28;22.00;99.90
47090;DHT22;32840;52.516;13.294;2023-07-30T07:47:13;22.10;99.90
47090;DHT22;32840;52.516;13.294;2023-07-30T07:49:58;22.20;99.90
47090;DHT22;32840;52.516;13.294;2023-07-30T07:52:43;22.20;99.90
47090;DHT22;32840;52.516;13.294;2023-07-30T07:55:28;22.30;99.90
47090;DHT22;32840;52.516;13.294;2023-07-30T07:58:13;22.50;99.90
47090;DHT22;32840;52.516;13.294;2023-07-30T08:00:58;22.50;99.90
47090;DHT22;32840;52.516;13.294;2023-07-30T08:03:43;22.60;99.90
47090;DHT22;32840;52.516;13.294;2023-07-30T08:06:28;22.50;99.90
47090;DHT22;32840;52.516;13.294;2023-07-30T08:09:14;22.50;99.90
47090;DHT22;32840;52.516;13.294;2023-07-30T08:12:02;22.30;99.90
47090;DHT22;32840;52.516;13.294;2023-07-30T08:14:46;22.80;99.90
47090;DHT22;32840;52.516;13.294;2023-07-30T08:17:31;23.40;99.90
47090;DHT22;32840;52.516;13.294;2023-07-30T08:20:16;23.60;99.90
47090;DHT22;32840;52.516;13.294;2023-07-30T08:23:01;23.60;99.90
47090;DHT22;32840;52.516;13.294;2023-07-30T08:25:47;23.50;99.90
47090;DHT22;32840;52.516;13.294;2023-07-30T08:28:32;23.30;99.90
47090;DHT22;32840;52.516;13.294;2023-07-30T08:31:17;23.10;99.90
47090;DHT22;32840;52.516;13.294;2023-07-30T08:34:02;22.90;99.90
47090;DHT22;32840;52.516;13.294;2023-07-30T08:36:47;23.20;99.90
47090;DHT22;32840;52.516;13.294;2023-07-30T08:39:31;23.30;99.90
47090;DHT22;32840;52.516;13.294;2023-07-30T08:42:16;23.30;99.90
47090;DHT22;32840;52.516;13.294;2023-07-30T08:45:04;23.40;99.90
47090;DHT22;32840;52.516;13.294;2023-07-30T08:47:50;23.70;99.90
47090;DHT22;32840;52.516;13.294;2023-07-30T08:50:36;23.70;99.90
47090;DHT22;32840;52.516;13.294;2023-07-30T08:53:22;23.70;99.90
47090;DHT22;32840;52.516;13.294;2023-07-30T08:56:09;23.70;99.90
47090;DHT22;32840;52.516;13.294;2023-07-30T08:58:57;24.00;99.90
47090;DHT22;32840;52.516;13.294;2023-07-30T09:01:44;24.30;99.90
47090;DHT22;32840;52.516;13.294;2023-07-30T09:04:30;24.60;99.90
47090;DHT22;32840;52.516;13.294;2023-07-30T09:07:19;24.60;99.90
47090;DHT22;32840;52.516;13.294;2023-07-30T09:10:04;25.10;99.90
47090;DHT22;32840;52.516;13.294;2023-07-30T09:12:56;25.70;99.90
47090;DHT22;32840;52.516;13.294;2023-07-30T09:15:48;26.20;99.70
47090;DHT22;32840;52.516;13.294;2023-07-30T09:18:39;26.40;96.70
47090;DHT22;32840;52.516;13.294;2023-07-30T09:21:34;26.70;94.90
47090;DHT22;32840;52.516;13.294;2023-07-30T09:24:22;26.90;94.60
47090;DHT22;32840;52.516;13.294;2023-07-30T09:27:07;27.10;92.60
47090;DHT22;32840;52.516;13.294;2023-07-30T09:29:54;27.10;92.30
47090;DHT22;32840;52.516;13.294;2023-07-30T09:32:39;27.10;90.90
47090;DHT22;32840;52.516;13.294;2023-07-30T09:35:25;26.80;91.40
47090;DHT22;32840;52.516;13.294;2023-07-30T09:38:10;26.70;91.50
47090;DHT22;32840;52.516;13.294;2023-07-30T09:41:00;27.00;90.10
47090;DHT22;32840;52.516;13.294;2023-07-30T09:43:46;27.10;88.70
47090;DHT22;32840;52.516;13.294;2023-07-30T09:46:31;26.80;87.50
47090;DHT22;32840;52.516;13.294;2023-07-30T09:49:17;26.70;89.00
47090;DHT22;32840;52.516;13.294;2023-07-30T09:52:03;26.60;88.80
47090;DHT22;32840;52.516;13.294;2023-07-30T09:54:52;26.40;88.60
47090;DHT22;32840;52.516;13.294;2023-07-30T09:57:38;26.20;88.70
47090;DHT22;32840;52.516;13.294;2023-07-30T10:00:23;26.30;88.20
47090;DHT22;32840;52.516;13.294;2023-07-30T10:03:10;26.20;88.60
47090;DHT22;32840;52.516;13.294;2023-07-30T10:06:03;26.10;88.50
47090;DHT22;32840;52.516;13.294;2023-07-30T10:08:50;26.00;87.50
47090;DHT22;32840;52.516;13.294;2023-07-30T10:11:37;26.20;85.00
47090;DHT22;32840;52.516;13.294;2023-07-30T10:14:24;26.10;84.20
47090;DHT22;32840;52.516;13.294;2023-07-30T10:17:10;26.00;82.70
47090;DHT22;32840;52.516;13.294;2023-07-30T10:19:55;25.80;83.90
47090;DHT22;32840;52.516;13.294;2023-07-30T10:22:40;25.50;83.20
47090;DHT22;32840;52.516;13.294;2023-07-30T10:28:35;24.80;89.20
47090;DHT22;32840;52.516;13.294;2023-07-30T10:31:41;24.80;88.60
47090;DHT22;32840;52.516;13.294;2023-07-30T10:34:42;25.00;86.90
47090;DHT22;32840;52.516;13.294;2023-07-30T10:37:28;25.10;88.30
47090;DHT22;32840;52.516;13.294;2023-07-30T10:40:16;24.90;88.00
47090;DHT22;32840;52.516;13.294;2023-07-30T10:43:02;25.00;88.40
47090;DHT22;32840;52.516;13.294;2023-07-30T10:45:50;25.30;87.30
47090;DHT22;32840;52.516;13.294;2023-07-30T10:48:37;25.30;86.90
47090;DHT22;32840;52.516;13.294;2023-07-30T10:51:22;25.40;86.50
47090;DHT22;32840;52.516;13.294;2023-07-30T10:54:08;25.40;84.30
47090;DHT22;32840;52.516;13.294;2023-07-30T10:56:54;25.50;84.30
47090;DHT22;32840;52.516;13.294;2023-07-30T10:59:39;25.60;84.20
47090;DHT22;32840;52.516;13.294;2023-07-30T11:02:24;25.60;80.50
47090;DHT22;32840;52.516;13.294;2023-07-30T11:05:13;25.60;79.60
47090;DHT22;32840;52.516;13.294;2023-07-30T11:07:58;25.60;79.70
47090;DHT22;32840;52.516;13.294;2023-07-30T11:10:44;25.60;77.10
47090;DHT22;32840;52.516;13.294;2023-07-30T11:13:34;25.60;80.00
47090;DHT22;32840;52.516;13.294;2023-07-30T11:16:20;25.60;77.70
47090;DHT22;32840;52.516;13.294;2023-07-30T11:19:08;25.70;78.70
47090;DHT22;32840;52.516;13.294;2023-07-30T11:21:55;25.60;81.70
47090;DHT22;32840;52.516;13.294;2023-07-30T11:24:41;25.70;76.60
47090;DHT22;32840;52.516;13.294;2023-07-30T11:27:26;25.60;71.20
47090;DHT22;32840;52.516;13.294;2023-07-30T11:30:10;25.50;72.50
47090;DHT22;32840;52.516;13.294;2023-07-30T11:32:56;25.50;75.00
47090;DHT22;32840;52.516;13.294;2023-07-30T11:35:40;25.50;73.90
47090;DHT22;32840;52.516;13.294;2023-07-30T11:38:26;25.40;75.50
47090;DHT22;32840;52.516;13.294;2023-07-30T11:41:12;25.40;74.30
47090;DHT22;32840;52.516;13.294;2023-07-30T11:43:58;25.40;74.70
47090;DHT22;32840;52.516;13.294;2023-07-30T11:46:53;25.40;76.00
47090;DHT22;32840;52.516;13.294;2023-07-30T11:49:38;25.30;74.90
47090;DHT22;32840;52.516;13.294;2023-07-30T11:52:23;25.30;76.40
47090;DHT22;32840;52.516;13.294;2023-07-30T11:55:08;25.40;74.80
47090;DHT22;32840;52.516;13.294;2023-07-30T11:57:53;25.30;75.10
47090;DHT22;32840;52.516;13.294;2023-07-30T12:00:40;25.20;74.10
47090;DHT22;32840;52.516;13.294;2023-07-30T12:03:25;25.10;76.70
47090;DHT22;32840;52.516;13.294;2023-07-30T12:06:10;25.10;77.80
47090;DHT22;32840;52.516;13.294;2023-07-30T12:08:55;25.20;76.60
47090;DHT22;32840;52.516;13.294;2023-07-30T12:11:53;25.30;75.00
47090;DHT22;32840;52.516;13.294;2023-07-30T12:17:33;25.40;73.50
47090;DHT22;32840;52.516;13.294;2023-07-30T12:20:18;25.40;74.10
47090;DHT22;32840;52.516;13.294;2023-07-30T12:23:03;25.40;74.20
47090;DHT22;32840;52.516;13.294;2023-07-30T12:25:48;25.40;73.20
47090;DHT22;32840;52.516;13.294;2023-07-30T12:28:34;25.40;75.60
47090;DHT22;32840;52.516;13.294;2023-07-30T12:31:19;25.40;75.20
47090;DHT22;32840;52.516;13.294;2023-07-30T12:34:04;25.50;73.60
47090;DHT22;32840;52.516;13.294;2023-07-30T12:36:49;25.50;74.70
47090;DHT22;32840;52.516;13.294;2023-07-30T12:39:34;25.50;75.00
47090;DHT22;32840;52.516;13.294;2023-07-30T12:42:19;25.50;75.80
47090;DHT22;32840;52.516;13.294;2023-07-30T12:45:05;25.50;73.80
47090;DHT22;32840;52.516;13.294;2023-07-30T12:47:50;25.50;75.70
47090;DHT22;32840;52.516;13.294;2023-07-30T12:50:35;25.60;74.00
47090;DHT22;32840;52.516;13.294;2023-07-30T12:53:19;25.70;74.50
47090;DHT22;32840;52.516;13.294;2023-07-30T12:56:04;25.80;75.70
47090;DHT22;32840;52.516;13.294;2023-07-30T12:58:49;25.80;73.60
47090;DHT22;32840;52.516;13.294;2023-07-30T13:01:34;25.70;74.00
47090;DHT22;32840;52.516;13.294;2023-07-30T13:04:21;25.70;72.50
47090;DHT22;32840;52.516;13.294;2023-07-30T13:07:06;25.70;74.30
47090;DHT22;32840;52.516;13.294;2023-07-30T13:10:03;25.80;72.10
47090;DHT22;32840;52.516;13.294;2023-07-30T13:12:48;25.90;71.20
47090;DHT22;32840;52.516;13.294;2023-07-30T13:15:33;25.90;71.40
47090;DHT22;32840;52.516;13.294;2023-07-30T13:18:17;25.90;71.00
47090;DHT22;32840;52.516;13.294;2023-07-30T13:21:02;25.90;70.30
47090;DHT22;32840;52.516;13.294;2023-07-30T13:23:47;26.00;69.80
47090;DHT22;32840;52.516;13.294;2023-07-30T13:26:33;26.00;69.10
47090;DHT22;32840;52.516;13.294;2023-07-30T13:29:17;25.90;68.60
47090;DHT22;32840;52.516;13.294;2023-07-30T13:32:02;25.90;68.90
47090;DHT22;32840;52.516;13.294;2023-07-30T13:34:47;25.90;66.40
47090;DHT22;32840;52.516;13.294;2023-07-30T13:37:33;25.80;64.60
47090;DHT22;32840;52.516;13.294;2023-07-30T13:40:18;25.80;67.30
47090;DHT22;32840;52.516;13.294;2023-07-30T13:43:03;25.70;66.40
47090;DHT22;32840;52.516;13.294;2023-07-30T13:45:50;25.70;65.60
47090;DHT22;32840;52.516;13.294;2023-07-30T13:48:36;25.70;66.00
47090;DHT22;32840;52.516;13.294;2023-07-30T13:51:21;25.60;65.00
47090;DHT22;32840;52.516;13.294;2023-07-30T13:54:06;25.60;66.00
47090;DHT22;32840;52.516;13.294;2023-07-30T13:56:52;25.60;66.20
47090;DHT22;32840;52.516;13.294;2023-07-30T13:59:37;25.40;67.80
47090;DHT22;32840;52.516;13.294;2023-07-30T14:02:24;25.40;70.50
47090;DHT22;32840;52.516;13.294;2023-07-30T14:05:11;25.40;67.70
47090;DHT22;32840;52.516;13.294;2023-07-30T14:07:56;25.30;69.10
47090;DHT22;32840;52.516;13.294;2023-07-30T14:10:41;25.30;69.60
47090;DHT22;32840;52.516;13.294;2023-07-30T14:13:26;25.30;69.60
47090;DHT22;32840;52.516;13.294;2023-07-30T14:16:11;25.20;67.60
47090;DHT22;32840;52.516;13.294;2023-07-30T14:18:56;25.00;68.40
47090;DHT22;32840;52.516;13.294;2023-07-30T14:21:41;24.90;70.40
47090;DHT22;32840;52.516;13.294;2023-07-30T14:24:27;24.90;72.30
47090;DHT22;32840;52.516;13.294;2023-07-30T14:27:12;24.80;71.50
47090;DHT22;32840;52.516;13.294;2023-07-30T14:29:57;24.80;72.30
47090;DHT22;32840;52.516;13.294;2023-07-30T14:32:42;24.70;71.00
47090;DHT22;32840;52.516;13.294;2023-07-30T14:35:27;24.50;73.20
47090;DHT22;32840;52.516;13.294;2023-07-30T14:38:14;24.40;75.30
47090;DHT22;32840;52.516;13.294;2023-07-30T14:41:00;24.20;73.90
47090;DHT22;32840;52.516;13.294;2023-07-30T14:43:44;24.00;75.50
47090;DHT22;32840;52.516;13.294;2023-07-30T14:46:29;24.10;76.90
47090;DHT22;32840;52.516;13.294;2023-07-30T14:49:14;24.10;74.50
47090;DHT22;32840;52.516;13.294;2023-07-30T14:51:59;24.00;74.00
47090;DHT22;32840;52.516;13.294;2023-07-30T14:54:45;24.00;75.30
47090;DHT22;32840;52.516;13.294;2023-07-30T14:57:30;23.80;76.40
47090;DHT22;32840;52.516;13.294;2023-07-30T15:00:15;23.60;78.40
47090;DHT22;32840;52.516;13.294;2023-07-30T15:03:00;23.50;81.30
47090;DHT22;32840;52.516;13.294;2023-07-30T15:05:46;23.40;83.00
47090;DHT22;32840;52.516;13.294;2023-07-30T15:08:31;23.20;84.60
47090;DHT22;32840;52.516;13.294;2023-07-30T15:11:16;23.00;86.10
47090;DHT22;32840;52.516;13.294;2023-07-30T15:14:01;22.80;87.10
47090;DHT22;32840;52.516;13.294;2023-07-30T15:16:46;22.80;88.70
47090;DHT22;32840;52.516;13.294;2023-07-30T15:19:31;22.80;88.80
47090;DHT22;32840;52.516;13.294;2023-07-30T15:22:16;22.90;89.70
47090;DHT22;32840;52.516;13.294;2023-07-30T15:25:01;22.90;90.20
47090;DHT22;32840;52.516;13.294;2023-07-30T15:27:48;23.00;90.50
47090;DHT22;32840;52.516;13.294;2023-07-30T15:30:32;23.00;90.60
47090;DHT22;32840;52.516;13.294;2023-07-30T15:33:19;22.90;91.30
47090;DHT22;32840;52.516;13.294;2023-07-30T15:36:04;22.90;92.40
47090;DHT22;32840;52.516;13.294;2023-07-30T15:38:50;22.90;92.40
47090;DHT22;32840;52.516;13.294;2023-07-30T15:41:39;23.00;92.20
47090;DHT22;32840;52.516;13.294;2023-07-30T15:44:24;22.90;91.90
47090;DHT22;32840;52.516;13.294;2023-07-30T15:47:09;22.90;92.40
47090;DHT22;32840;52.516;13.294;2023-07-30T15:49:58;22.90;92.30
47090;DHT22;32840;52.516;13.294;2023-07-30T15:52:43;22.90;92.20
47090;DHT22;32840;52.516;13.294;2023-07-30T15:55:28;22.90;92.80
47090;DHT22;32840;52.516;13.294;2023-07-30T15:58:13;22.90;93.30
47090;DHT22;32840;52.516;13.294;2023-07-30T16:01:06;22.80;93.20
47090;DHT22;32840;52.516;13.294;2023-07-30T16:03:54;22.70;93.30
47090;DHT22;32840;52.516;13.294;2023-07-30T16:06:39;22.70;94.00
47090;DHT22;32840;52.516;13.294;2023-07-30T16:09:25;22.70;93.90
47090;DHT22;32840;52.516;13.294;2023-07-30T16:12:10;22.70;94.00
47090;DHT22;32840;52.516;13.294;2023-07-30T16:14:57;22.70;94.00
47090;DHT22;32840;52.516;13.294;2023-07-30T16:17:42;22.70;94.30
47090;DHT22;32840;52.516;13.294;2023-07-30T16:20:27;22.60;94.10
47090;DHT22;32840;52.516;13.294;2023-07-30T16:23:12;22.70;94.20
47090;DHT22;32840;52.516;13.294;2023-07-30T16:25:56;22.70;94.00
47090;DHT22;32840;52.516;13.294;2023-07-30T16:28:42;22.70;94.40
47090;DHT22;32840;52.516;13.294;2023-07-30T16:31:29;22.60;94.40
47090;DHT22;32840;52.516;13.294;2023-07-30T16:34:14;22.60;94.90
47090;DHT22;32840;52.516;13.294;2023-07-30T16:36:59;22.50;94.90
47090;DHT22;32840;52.516;13.294;2023-07-30T16:39:45;22.50;95.00
47090;DHT22;32840;52.516;13.294;2023-07-30T16:42:31;22.70;94.90
47090;DHT22;32840;52.516;13.294;2023-07-30T16:45:16;22.70;94.70
47090;DHT22;32840;52.516;13.294;2023-07-30T16:48:01;22.70;94.80
47090;DHT22;32840;52.516;13.294;2023-07-30T16:50:48;22.50;95.50
47090;DHT22;32840;52.516;13.294;2023-07-30T16:53:32;22.50;95.40
47090;DHT22;32840;52.516;13.294;2023-07-30T16:56:18;22.40;95.20
47090;DHT22;32840;52.516;13.294;2023-07-30T16:59:03;22.50;95.50
47090;DHT22;32840;52.516;13.294;2023-07-30T17:01:49;22.40;96.10
47090;DHT22;32840;52.516;13.294;2023-07-30T17:04:34;22.40;96.40
47090;DHT22;32840;52.516;13.294;2023-07-30T17:07:19;22.30;96.40
47090;DHT22;32840;52.516;13.294;2023-07-30T17:10:04;22.20;96.90
47090;DHT22;32840;52.516;13.294;2023-07-30T17:12:49;22.10;97.10
47090;DHT22;32840;52.516;13.294;2023-07-30T17:15:35;22.00;97.10